UAL2679 KLAX-KLAS
Flight info
| Callsign | UAL2679 |
|---|---|
| Flight time | 0h 45m |
| Altitude | 27000 |
| Route | ORCKA5 MISEN RNDRZ4 |
| Aircraft | A20N/M-SDE2E3FGHIRWXY/LB1 |
Departure
| Time | 2026-05-04 02:14 |
|---|---|
| Airport | Los Angeles International Airport (KLAX) |
Arrival
| Time | 2026-05-04 02:59 |
|---|---|
| Airport | Harry Reid International Airport (KLAS) |
| Time | Latitude | Longitude | Altitude | Speed | Heading |
|---|---|---|---|---|---|
| 2026-05-04 01:24 | 33.94031 | -118.39991 | 125 ft | 0 kts | 28° |
| 2026-05-04 02:02 | 33.94027 | -118.39993 | 117 ft | 3 kts | 29° |
| 2026-05-04 02:02 | 33.94004 | -118.40010 | 121 ft | 4 kts | 35° |
| 2026-05-04 02:02 | 33.93983 | -118.40030 | 121 ft | 4 kts | 51° |
| 2026-05-04 02:02 | 33.93973 | -118.40056 | 124 ft | 4 kts | 110° |
| 2026-05-04 02:03 | 33.93977 | -118.40066 | 124 ft | 0 kts | 120° |
| 2026-05-04 02:08 | 33.93976 | -118.40066 | 124 ft | 0 kts | 124° |
| 2026-05-04 02:08 | 33.93971 | -118.40063 | 125 ft | 3 kts | 150° |
| 2026-05-04 02:08 | 33.93937 | -118.40054 | 122 ft | 12 kts | 168° |
| 2026-05-04 02:08 | 33.93883 | -118.39974 | 123 ft | 14 kts | 95° |
| 2026-05-04 02:09 | 33.93893 | -118.39855 | 125 ft | 16 kts | 84° |
| 2026-05-04 02:09 | 33.93908 | -118.39715 | 124 ft | 18 kts | 82° |
| 2026-05-04 02:09 | 33.93924 | -118.39551 | 125 ft | 21 kts | 84° |
| 2026-05-04 02:09 | 33.93942 | -118.39380 | 121 ft | 16 kts | 82° |
| 2026-05-04 02:10 | 33.93952 | -118.39291 | 125 ft | 6 kts | 83° |
| 2026-05-04 02:10 | 33.93953 | -118.39273 | 123 ft | 0 kts | 83° |
| 2026-05-04 02:10 | 33.93966 | -118.39153 | 122 ft | 29 kts | 84° |
| 2026-05-04 02:10 | 33.93998 | -118.38860 | 121 ft | 39 kts | 84° |
| 2026-05-04 02:11 | 33.94021 | -118.38635 | 125 ft | 23 kts | 83° |
| 2026-05-04 02:11 | 33.94036 | -118.38462 | 123 ft | 17 kts | 84° |
| 2026-05-04 02:11 | 33.94049 | -118.38334 | 124 ft | 15 kts | 84° |
| 2026-05-04 02:11 | 33.94055 | -118.38219 | 123 ft | 15 kts | 88° |
| 2026-05-04 02:12 | 33.94073 | -118.38108 | 125 ft | 12 kts | 81° |
| 2026-05-04 02:12 | 33.94077 | -118.38067 | 125 ft | 0 kts | 84° |
| 2026-05-04 02:12 | 33.94077 | -118.38054 | 125 ft | 9 kts | 93° |
| 2026-05-04 02:13 | 33.93994 | -118.38019 | 123 ft | 17 kts | 224° |
| 2026-05-04 02:13 | 33.93970 | -118.38156 | 125 ft | 31 kts | 264° |
| 2026-05-04 02:13 | 33.93923 | -118.38627 | 123 ft | 82 kts | 262° |
| 2026-05-04 02:13 | 33.93831 | -118.39491 | 125 ft | 124 kts | 264° |
| 2026-05-04 02:14 | 33.93712 | -118.40659 | 277 ft | 148 kts | 260° |
| 2026-05-04 02:14 | 33.93572 | -118.41804 | 1055 ft | 133 kts | 260° |
| 2026-05-04 02:14 | 33.93441 | -118.42973 | 1505 ft | 148 kts | 262° |
| 2026-05-04 02:14 | 33.93311 | -118.44224 | 2047 ft | 157 kts | 262° |
| 2026-05-04 02:15 | 33.93164 | -118.45616 | 2359 ft | 177 kts | 262° |
| 2026-05-04 02:15 | 33.93004 | -118.47164 | 2749 ft | 198 kts | 262° |
| 2026-05-04 02:15 | 33.92793 | -118.48891 | 3222 ft | 219 kts | 258° |
| 2026-05-04 02:15 | 33.92536 | -118.50773 | 3866 ft | 234 kts | 262° |
| 2026-05-04 02:16 | 33.92331 | -118.52697 | 4846 ft | 234 kts | 262° |
| 2026-05-04 02:16 | 33.92109 | -118.54641 | 5837 ft | 234 kts | 259° |
| 2026-05-04 02:16 | 33.91475 | -118.56467 | 6715 ft | 240 kts | 244° |
| 2026-05-04 02:16 | 33.90875 | -118.58332 | 7632 ft | 241 kts | 244° |
| 2026-05-04 02:17 | 33.89794 | -118.59878 | 8481 ft | 247 kts | 215° |
| 2026-05-04 02:17 | 33.88180 | -118.60588 | 9393 ft | 253 kts | 187° |
| 2026-05-04 02:17 | 33.86430 | -118.60254 | 10282 ft | 261 kts | 159° |
| 2026-05-04 02:17 | 33.84963 | -118.58924 | 11064 ft | 273 kts | 132° |
| 2026-05-04 02:18 | 33.84112 | -118.56836 | 11814 ft | 287 kts | 105° |
| 2026-05-04 02:18 | 33.84103 | -118.54410 | 12560 ft | 298 kts | 79° |
| 2026-05-04 02:18 | 33.84941 | -118.52095 | 12933 ft | 307 kts | 54° |
| 2026-05-04 02:18 | 33.86464 | -118.50307 | 13018 ft | 308 kts | 36° |
| 2026-05-04 02:19 | 33.88209 | -118.48798 | 13129 ft | 310 kts | 35° |
| 2026-05-04 02:19 | 33.89929 | -118.47206 | 13710 ft | 313 kts | 39° |
| 2026-05-04 02:19 | 33.91570 | -118.45480 | 14450 ft | 316 kts | 42° |
| 2026-05-04 02:19 | 33.93132 | -118.43575 | 15056 ft | 323 kts | 51° |
| 2026-05-04 02:20 | 33.94440 | -118.41344 | 15647 ft | 330 kts | 56° |
| 2026-05-04 02:20 | 33.95722 | -118.39059 | 16238 ft | 336 kts | 56° |
| 2026-05-04 02:20 | 33.97045 | -118.36694 | 16830 ft | 343 kts | 55° |
| 2026-05-04 02:20 | 33.98395 | -118.34282 | 17384 ft | 351 kts | 55° |
| 2026-05-04 02:21 | 33.99774 | -118.31828 | 17982 ft | 357 kts | 54° |
| 2026-05-04 02:21 | 34.01165 | -118.29363 | 18517 ft | 363 kts | 54° |
| 2026-05-04 02:21 | 34.02600 | -118.26831 | 19046 ft | 367 kts | 53° |
| 2026-05-04 02:21 | 34.04045 | -118.24284 | 19652 ft | 368 kts | 54° |
| 2026-05-04 02:22 | 34.05497 | -118.21724 | 20193 ft | 373 kts | 54° |
| 2026-05-04 02:22 | 34.06970 | -118.19122 | 20669 ft | 378 kts | 54° |
| 2026-05-04 02:22 | 34.08459 | -118.16482 | 21171 ft | 383 kts | 54° |
| 2026-05-04 02:22 | 34.09966 | -118.13809 | 21685 ft | 387 kts | 54° |
| 2026-05-04 02:23 | 34.11492 | -118.11106 | 22195 ft | 392 kts | 53° |
| 2026-05-04 02:23 | 34.13035 | -118.08373 | 22694 ft | 397 kts | 53° |
| 2026-05-04 02:23 | 34.14600 | -118.05600 | 23165 ft | 400 kts | 53° |
| 2026-05-04 02:23 | 34.16174 | -118.02811 | 23674 ft | 404 kts | 53° |
| 2026-05-04 02:24 | 34.17762 | -117.99991 | 24094 ft | 408 kts | 53° |
| 2026-05-04 02:24 | 34.19361 | -117.97148 | 24573 ft | 410 kts | 53° |
| 2026-05-04 02:24 | 34.20947 | -117.94326 | 24944 ft | 414 kts | 53° |
| 2026-05-04 02:24 | 34.22572 | -117.91436 | 25317 ft | 418 kts | 53° |
| 2026-05-04 02:25 | 34.24208 | -117.88522 | 25678 ft | 421 kts | 53° |
| 2026-05-04 02:25 | 34.25857 | -117.85583 | 26098 ft | 423 kts | 53° |
| 2026-05-04 02:25 | 34.27515 | -117.82626 | 26493 ft | 426 kts | 53° |
| 2026-05-04 02:25 | 34.29182 | -117.79649 | 26833 ft | 430 kts | 52° |
| 2026-05-04 02:26 | 34.30866 | -117.76641 | 26949 ft | 432 kts | 53° |
| 2026-05-04 02:26 | 34.32547 | -117.73636 | 26957 ft | 429 kts | 53° |
| 2026-05-04 02:26 | 34.34214 | -117.70650 | 26959 ft | 429 kts | 52° |
| 2026-05-04 02:26 | 34.35898 | -117.67656 | 26944 ft | 432 kts | 51° |
| 2026-05-04 02:27 | 34.37677 | -117.64658 | 26938 ft | 446 kts | 50° |
| 2026-05-04 02:27 | 34.39544 | -117.61583 | 26932 ft | 461 kts | 50° |
| 2026-05-04 02:27 | 34.41470 | -117.58404 | 26910 ft | 475 kts | 50° |
| 2026-05-04 02:27 | 34.43446 | -117.55121 | 26900 ft | 489 kts | 51° |
| 2026-05-04 02:28 | 34.45470 | -117.51738 | 26917 ft | 504 kts | 51° |
| 2026-05-04 02:28 | 34.47541 | -117.48260 | 26922 ft | 513 kts | 51° |
| 2026-05-04 02:28 | 34.49625 | -117.44751 | 26924 ft | 510 kts | 51° |
| 2026-05-04 02:28 | 34.51685 | -117.41278 | 26934 ft | 507 kts | 51° |
| 2026-05-04 02:29 | 34.53752 | -117.37798 | 26935 ft | 509 kts | 51° |
| 2026-05-04 02:29 | 34.55825 | -117.34307 | 26934 ft | 509 kts | 51° |
| 2026-05-04 02:29 | 34.57892 | -117.30821 | 26935 ft | 509 kts | 51° |
| 2026-05-04 02:29 | 34.59956 | -117.27334 | 26933 ft | 508 kts | 51° |
| 2026-05-04 02:30 | 34.62018 | -117.23847 | 26922 ft | 509 kts | 51° |
| 2026-05-04 02:30 | 34.64083 | -117.20352 | 26907 ft | 509 kts | 51° |
| 2026-05-04 02:30 | 34.66118 | -117.16903 | 26806 ft | 508 kts | 51° |
| 2026-05-04 02:30 | 34.68174 | -117.13415 | 26820 ft | 508 kts | 51° |
| 2026-05-04 02:31 | 34.70231 | -117.09924 | 26801 ft | 508 kts | 51° |
| 2026-05-04 02:31 | 34.72289 | -117.06429 | 26804 ft | 508 kts | 51° |
| 2026-05-04 02:31 | 34.74342 | -117.02935 | 26803 ft | 508 kts | 51° |
| 2026-05-04 02:31 | 34.76398 | -116.99435 | 26805 ft | 508 kts | 51° |
| 2026-05-04 02:32 | 34.78450 | -116.95937 | 26798 ft | 508 kts | 52° |
| 2026-05-04 02:32 | 34.80503 | -116.92434 | 26718 ft | 508 kts | 52° |
| 2026-05-04 02:32 | 34.82549 | -116.88939 | 26516 ft | 507 kts | 52° |
| 2026-05-04 02:32 | 34.84591 | -116.85448 | 26255 ft | 506 kts | 52° |
| 2026-05-04 02:33 | 34.86634 | -116.81953 | 26052 ft | 505 kts | 52° |
| 2026-05-04 02:33 | 34.88649 | -116.78500 | 25941 ft | 495 kts | 52° |
| 2026-05-04 02:33 | 34.90625 | -116.75109 | 25697 ft | 487 kts | 52° |
| 2026-05-04 02:33 | 34.92579 | -116.71755 | 25450 ft | 484 kts | 52° |
| 2026-05-04 02:34 | 34.93857 | -116.69525 | 25299 ft | 486 kts | 53° |
| 2026-05-04 02:34 | 34.95778 | -116.66125 | 25061 ft | 487 kts | 53° |
| 2026-05-04 02:34 | 34.97689 | -116.62724 | 24818 ft | 485 kts | 53° |
| 2026-05-04 02:34 | 34.99588 | -116.59342 | 24629 ft | 480 kts | 53° |
| 2026-05-04 02:35 | 35.02052 | -116.54957 | 24477 ft | 465 kts | 53° |
| 2026-05-04 02:35 | 35.03276 | -116.52780 | 24393 ft | 456 kts | 53° |
| 2026-05-04 02:35 | 35.05047 | -116.49628 | 24252 ft | 444 kts | 53° |
| 2026-05-04 02:35 | 35.06779 | -116.46548 | 23976 ft | 437 kts | 53° |
| 2026-05-04 02:36 | 35.08484 | -116.43515 | 23818 ft | 432 kts | 53° |
| 2026-05-04 02:36 | 35.10208 | -116.40530 | 23763 ft | 436 kts | 49° |
| 2026-05-04 02:36 | 35.12242 | -116.37776 | 23559 ft | 436 kts | 43° |
| 2026-05-04 02:36 | 35.14330 | -116.35098 | 23334 ft | 433 kts | 43° |
| 2026-05-04 02:37 | 35.16397 | -116.32437 | 23091 ft | 430 kts | 43° |
| 2026-05-04 02:37 | 35.18443 | -116.29796 | 22821 ft | 427 kts | 43° |
| 2026-05-04 02:37 | 35.20476 | -116.27166 | 22570 ft | 423 kts | 43° |
| 2026-05-04 02:37 | 35.22489 | -116.24559 | 22292 ft | 420 kts | 43° |
| 2026-05-04 02:38 | 35.24466 | -116.21946 | 22026 ft | 417 kts | 45° |
| 2026-05-04 02:38 | 35.26393 | -116.19303 | 21775 ft | 414 kts | 46° |
| 2026-05-04 02:38 | 35.28295 | -116.16669 | 21512 ft | 411 kts | 46° |
| 2026-05-04 02:38 | 35.30189 | -116.14051 | 21265 ft | 409 kts | 46° |
| 2026-05-04 02:39 | 35.32067 | -116.11462 | 21018 ft | 405 kts | 46° |
| 2026-05-04 02:39 | 35.33936 | -116.08890 | 20767 ft | 401 kts | 46° |
| 2026-05-04 02:39 | 35.35779 | -116.06355 | 20522 ft | 397 kts | 46° |
| 2026-05-04 02:39 | 35.37610 | -116.03837 | 20277 ft | 394 kts | 46° |
| 2026-05-04 02:40 | 35.39431 | -116.01334 | 20032 ft | 395 kts | 46° |
| 2026-05-04 02:40 | 35.41309 | -115.98754 | 19736 ft | 426 kts | 47° |
| 2026-05-04 02:40 | 35.43346 | -115.95955 | 19289 ft | 449 kts | 47° |
| 2026-05-04 02:40 | 35.45444 | -115.93067 | 18826 ft | 455 kts | 48° |
| 2026-05-04 02:41 | 35.47532 | -115.90185 | 18660 ft | 446 kts | 48° |
| 2026-05-04 02:41 | 35.49559 | -115.87382 | 18548 ft | 432 kts | 48° |
| 2026-05-04 02:41 | 35.51514 | -115.84678 | 18408 ft | 417 kts | 48° |
| 2026-05-04 02:41 | 35.53408 | -115.82057 | 18279 ft | 402 kts | 48° |
| 2026-05-04 02:42 | 35.55218 | -115.79549 | 18101 ft | 383 kts | 48° |
| 2026-05-04 02:42 | 35.56941 | -115.77160 | 17850 ft | 366 kts | 49° |
| 2026-05-04 02:42 | 35.58613 | -115.74841 | 17293 ft | 360 kts | 49° |
| 2026-05-04 02:42 | 35.60268 | -115.72558 | 16661 ft | 356 kts | 49° |
| 2026-05-04 02:43 | 35.61904 | -115.70349 | 16079 ft | 352 kts | 49° |
| 2026-05-04 02:43 | 35.63550 | -115.68141 | 15558 ft | 346 kts | 49° |
| 2026-05-04 02:43 | 35.65145 | -115.66000 | 15397 ft | 338 kts | 49° |
| 2026-05-04 02:43 | 35.66744 | -115.63847 | 15219 ft | 341 kts | 49° |
| 2026-05-04 02:44 | 35.68333 | -115.61705 | 15071 ft | 337 kts | 49° |
| 2026-05-04 02:44 | 35.69907 | -115.59576 | 14892 ft | 336 kts | 50° |
| 2026-05-04 02:44 | 35.71475 | -115.57454 | 14720 ft | 334 kts | 49° |
| 2026-05-04 02:44 | 35.73181 | -115.55509 | 14555 ft | 335 kts | 38° |
| 2026-05-04 02:45 | 35.75138 | -115.53966 | 14380 ft | 335 kts | 30° |
| 2026-05-04 02:45 | 35.77174 | -115.52564 | 14214 ft | 335 kts | 31° |
| 2026-05-04 02:45 | 35.79196 | -115.51153 | 14043 ft | 333 kts | 31° |
| 2026-05-04 02:45 | 35.81205 | -115.49744 | 13867 ft | 331 kts | 31° |
| 2026-05-04 02:46 | 35.83210 | -115.48335 | 13702 ft | 330 kts | 31° |
| 2026-05-04 02:46 | 35.85205 | -115.46932 | 13519 ft | 331 kts | 31° |
| 2026-05-04 02:46 | 35.87205 | -115.45523 | 13348 ft | 330 kts | 31° |
| 2026-05-04 02:46 | 35.89201 | -115.44118 | 13184 ft | 330 kts | 31° |
| 2026-05-04 02:47 | 35.91187 | -115.42720 | 13062 ft | 327 kts | 31° |
| 2026-05-04 02:47 | 35.93172 | -115.41330 | 12944 ft | 327 kts | 31° |
| 2026-05-04 02:47 | 35.95160 | -115.39943 | 12489 ft | 330 kts | 31° |
| 2026-05-04 02:47 | 35.97131 | -115.38568 | 12078 ft | 329 kts | 31° |
| 2026-05-04 02:48 | 35.99129 | -115.37162 | 11626 ft | 329 kts | 33° |
| 2026-05-04 02:48 | 36.00811 | -115.35299 | 11149 ft | 325 kts | 57° |
| 2026-05-04 02:48 | 36.01708 | -115.32838 | 10959 ft | 306 kts | 83° |
| 2026-05-04 02:48 | 36.01795 | -115.30304 | 10806 ft | 288 kts | 99° |
| 2026-05-04 02:49 | 36.01570 | -115.27916 | 10652 ft | 270 kts | 103° |
| 2026-05-04 02:49 | 36.01324 | -115.25695 | 10490 ft | 255 kts | 102° |
| 2026-05-04 02:49 | 36.01119 | -115.23541 | 10057 ft | 252 kts | 101° |
| 2026-05-04 02:49 | 36.00959 | -115.21388 | 9553 ft | 252 kts | 100° |
| 2026-05-04 02:50 | 36.00828 | -115.19238 | 9168 ft | 248 kts | 99° |
| 2026-05-04 02:50 | 36.00708 | -115.17051 | 9093 ft | 270 kts | 98° |
| 2026-05-04 02:50 | 36.00585 | -115.14718 | 9175 ft | 268 kts | 98° |
| 2026-05-04 02:50 | 36.00479 | -115.12468 | 9057 ft | 255 kts | 98° |
| 2026-05-04 02:51 | 36.00378 | -115.10323 | 9056 ft | 251 kts | 98° |
| 2026-05-04 02:51 | 36.00266 | -115.08138 | 8998 ft | 255 kts | 98° |
| 2026-05-04 02:51 | 36.00157 | -115.05986 | 8943 ft | 246 kts | 99° |
| 2026-05-04 02:51 | 36.00054 | -115.03912 | 8727 ft | 239 kts | 99° |
| 2026-05-04 02:52 | 35.99947 | -115.01856 | 8385 ft | 239 kts | 99° |
| 2026-05-04 02:52 | 35.99914 | -114.99814 | 8100 ft | 234 kts | 96° |
| 2026-05-04 02:52 | 35.99906 | -114.97765 | 8011 ft | 241 kts | 96° |
| 2026-05-04 02:52 | 35.99893 | -114.95705 | 8015 ft | 240 kts | 96° |
| 2026-05-04 02:53 | 35.99906 | -114.93651 | 8009 ft | 245 kts | 88° |
| 2026-05-04 02:53 | 36.00509 | -114.91715 | 8013 ft | 244 kts | 54° |
| 2026-05-04 02:53 | 36.01754 | -114.90375 | 8019 ft | 232 kts | 32° |
| 2026-05-04 02:53 | 36.03159 | -114.89607 | 7999 ft | 211 kts | 5° |
| 2026-05-04 02:54 | 36.04490 | -114.89839 | 7959 ft | 184 kts | 324° |
| 2026-05-04 02:54 | 36.05514 | -114.90659 | 7857 ft | 168 kts | 316° |
| 2026-05-04 02:54 | 36.06457 | -114.91469 | 7515 ft | 163 kts | 311° |
| 2026-05-04 02:54 | 36.07125 | -114.92517 | 7124 ft | 151 kts | 282° |
| 2026-05-04 02:55 | 36.07390 | -114.94987 | 6417 ft | 143 kts | 258° |
| 2026-05-04 02:55 | 36.07377 | -114.96210 | 6088 ft | 142 kts | 259° |
| 2026-05-04 02:55 | 36.07376 | -114.97426 | 5724 ft | 141 kts | 259° |
| 2026-05-04 02:56 | 36.07375 | -114.98644 | 5385 ft | 141 kts | 259° |
| 2026-05-04 02:56 | 36.07374 | -114.99853 | 5037 ft | 140 kts | 259° |
| 2026-05-04 02:56 | 36.07373 | -115.01038 | 4684 ft | 139 kts | 259° |
| 2026-05-04 02:56 | 36.07372 | -115.02246 | 4360 ft | 136 kts | 264° |
| 2026-05-04 02:57 | 36.07372 | -115.03395 | 4043 ft | 133 kts | 264° |
| 2026-05-04 02:57 | 36.07371 | -115.04532 | 3693 ft | 134 kts | 264° |
| 2026-05-04 02:57 | 36.07370 | -115.05675 | 3398 ft | 131 kts | 264° |
| 2026-05-04 02:57 | 36.07369 | -115.06821 | 3138 ft | 134 kts | 263° |
| 2026-05-04 02:58 | 36.07366 | -115.07999 | 2887 ft | 142 kts | 264° |
| 2026-05-04 02:58 | 36.07370 | -115.09181 | 2673 ft | 133 kts | 263° |
| 2026-05-04 02:58 | 36.07367 | -115.10340 | 2494 ft | 131 kts | 261° |
| 2026-05-04 02:58 | 36.07370 | -115.11407 | 2308 ft | 118 kts | 259° |
| 2026-05-04 02:59 | 36.07364 | -115.12480 | 2196 ft | 127 kts | 262° |
| 2026-05-04 02:59 | 36.07372 | -115.13511 | 2128 ft | 111 kts | 260° |
| 2026-05-04 02:59 | 36.07355 | -115.14258 | 2127 ft | 48 kts | 275° |
| 2026-05-04 02:59 | 36.07390 | -115.14406 | 2128 ft | 21 kts | 299° |
| 2026-05-04 03:00 | 36.07460 | -115.14566 | 2126 ft | 0 kts | 299° |
| 2026-05-04 03:00 | 36.07484 | -115.14617 | 2124 ft | 0 kts | 300° |
| 2026-05-04 03:00 | 36.07518 | -115.14646 | 2127 ft | 17 kts | 340° |
| 2026-05-04 03:00 | 36.07661 | -115.14653 | 2123 ft | 21 kts | 0° |
| 2026-05-04 03:01 | 36.07740 | -115.14662 | 2120 ft | 7 kts | 343° |
| 2026-05-04 03:01 | 36.07749 | -115.14668 | 2120 ft | 0 kts | 332° |
| 2026-05-04 03:01 | 36.07755 | -115.14671 | 2112 ft | 3 kts | 334° |
| 2026-05-04 03:01 | 36.07815 | -115.14711 | 2119 ft | 12 kts | 336° |
| 2026-05-04 03:02 | 36.07882 | -115.14726 | 2119 ft | 5 kts | 347° |
| 2026-05-04 03:02 | 36.07886 | -115.14728 | 2119 ft | 0 kts | 345° |
| 2026-05-04 03:03 | 36.07888 | -115.14728 | 2119 ft | 1 kts | 345° |
| 2026-05-04 03:03 | 36.07900 | -115.14734 | 2119 ft | 3 kts | 340° |
| 2026-05-04 03:03 | 36.07971 | -115.14735 | 2119 ft | 8 kts | 51° |
| 2026-05-04 03:03 | 36.07974 | -115.14728 | 2121 ft | 1 kts | 60° |
| 2026-05-04 03:04 | 36.07983 | -115.14709 | 2118 ft | 6 kts | 61° |
| 2026-05-04 03:04 | 36.07984 | -115.14707 | 2118 ft | 0 kts | 61° |